High Point, Missouri
Current Conditions -  °F | °C
As of 2:53 PM on Tuesday 21 Oct 2014 (Local Time) from KJEF Reporting Station
Clear Clear  
Wind Chill: 73°   Ceiling: Unl
Heat Index: 73°   Visibility: 10mi
Dew Point: 43°   Wind: 7mph
Humidity: 34%   Direction: 60°ENE
Pressure: 30.09"   Gusts: NA
Location:  38.48°N, 92.59°W
Report Text: KJEF 211953Z 06006KT 10SM CLR 23/06 A3009 RMK AO2 SLP178 T02280061
Loading
Personal Weather Stations






























Interactive Weather Map
Tropical Storm Tracking
New forecast layout! Learn more

10-Day Weather Forecast

Advertisements
Track Severe Weather on mobile